Poling, Indiana
Current Conditions -  °F | °C
As of 10:15 AM on Monday 22 Dec 2014 (Local Time) from KVES Reporting Station
Overcast Overcast  
Wind Chill: 24°   Ceiling: 4600
Heat Index: 32°   Visibility: 7mi
Dew Point: 32°   Wind: 10mph
Humidity: 100%   Direction: 140°SE
Pressure: 29.99"   Gusts: NA
Location:  40.5419°N, 84.8968°W
Report Text: KVES 221515Z AUTO 14009KT 7SM OVC046 00/00 A2999 RMK AO2
Loading
Personal Weather Stations






























Interactive Weather Map New forecast layout! Learn more

10-Day Weather Forecast

Advertisements
Track Severe Weather on mobile